createdAt,value
2023-02-07T00:01:42.918Z,12.77
2023-02-07T00:03:46.294Z,10.20
2023-02-07T00:05:49.051Z,9.77
2023-02-07T00:07:51.854Z,12.33
2023-02-07T00:09:54.750Z,12.57
2023-02-07T00:11:57.490Z,11.30
2023-02-07T00:14:01.017Z,12.07
2023-02-07T00:16:04.544Z,10.40
2023-02-07T00:18:08.995Z,10.93
2023-02-07T00:20:12.981Z,11.57
2023-02-07T00:22:15.824Z,13.43
2023-02-07T00:24:18.559Z,10.97
2023-02-07T00:26:23.388Z,11.30
2023-02-07T00:28:26.443Z,10.77
2023-02-07T00:30:29.278Z,12.90
2023-02-07T00:32:32.494Z,12.93
2023-02-07T00:34:37.036Z,12.07
2023-02-07T00:36:40.989Z,13.20
2023-02-07T00:38:44.529Z,11.17
2023-02-07T00:40:47.302Z,10.93
2023-02-07T00:42:50.110Z,10.90
2023-02-07T00:44:52.906Z,9.40
2023-02-07T00:46:55.664Z,9.87
2023-02-07T00:48:58.489Z,10.97
2023-02-07T00:51:02.855Z,11.70
2023-02-07T00:53:05.741Z,9.73
2023-02-07T00:55:09.208Z,12.20
2023-02-07T00:57:12.030Z,10.53
2023-02-07T00:59:14.743Z,11.30
2023-02-07T01:01:17.620Z,12.83
2023-02-07T01:03:20.893Z,14.60
2023-02-07T01:05:23.730Z,11.83
2023-02-07T01:07:27.835Z,13.40
2023-02-07T01:09:30.527Z,14.10
2023-02-07T01:11:33.579Z,11.43
2023-02-07T01:13:36.699Z,9.53
2023-02-07T01:15:40.737Z,12.47
2023-02-07T01:17:43.622Z,12.50
2023-02-07T01:19:46.490Z,11.53
2023-02-07T01:21:49.202Z,13.37
2023-02-07T01:23:56.563Z,14.03
2023-02-07T01:25:59.322Z,16.20
2023-02-07T01:28:02.202Z,14.30
2023-02-07T01:30:05.738Z,12.10
2023-02-07T01:32:08.454Z,14.00
2023-02-07T01:34:12.988Z,14.67
2023-02-07T01:36:17.227Z,15.50
2023-02-07T01:38:19.970Z,14.87
2023-02-07T01:40:24.076Z,15.00
2023-02-07T01:42:28.695Z,15.53
2023-02-07T01:45:05.055Z,17.80
2023-02-07T01:47:09.757Z,16.20
2023-02-07T01:49:13.934Z,16.33
2023-02-07T01:51:17.719Z,17.80
2023-02-07T01:53:25.062Z,15.97
2023-02-07T01:55:32.376Z,17.67
2023-02-07T01:57:35.781Z,17.50
2023-02-07T01:59:43.931Z,18.23
2023-02-07T02:01:47.851Z,16.07
2023-02-07T02:03:53.825Z,18.80
2023-02-07T02:05:57.561Z,18.90
2023-02-07T02:08:00.349Z,16.00
2023-02-07T02:10:03.249Z,19.27
2023-02-07T02:12:23.209Z,19.13
2023-02-07T02:14:42.065Z,16.97
2023-02-07T02:16:52.998Z,17.67
2023-02-07T02:19:26.465Z,17.07
2023-02-07T02:22:19.870Z,18.77
2023-02-07T02:24:52.532Z,19.07
2023-02-07T02:27:10.587Z,16.53
2023-02-07T02:29:46.417Z,17.70
2023-02-07T02:32:28.551Z,20.27
2023-02-07T02:34:39.350Z,16.80
2023-02-07T02:36:51.740Z,17.77
2023-02-07T02:39:08.284Z,20.90
2023-02-07T02:41:14.573Z,20.07
2023-02-07T02:43:26.889Z,19.53
2023-02-07T02:45:34.128Z,22.57
2023-02-07T02:47:37.740Z,18.77
2023-02-07T02:49:43.985Z,21.87
2023-02-07T02:51:50.696Z,19.60
2023-02-07T02:53:54.425Z,21.47
2023-02-07T02:56:26.530Z,21.47
2023-02-07T02:58:37.658Z,19.63
2023-02-07T03:00:56.619Z,19.93
2023-02-07T03:03:15.284Z,18.47
2023-02-07T03:05:37.126Z,21.27
2023-02-07T03:07:49.476Z,21.93
2023-02-07T03:10:04.557Z,22.27
2023-02-07T03:12:15.467Z,21.23
2023-02-07T03:14:23.877Z,24.20
2023-02-07T03:16:32.094Z,23.20
2023-02-07T03:18:46.789Z,22.67
2023-02-07T03:20:55.059Z,20.70
2023-02-07T03:22:59.909Z,22.37
2023-02-07T03:25:05.144Z,23.70
2023-02-07T03:27:11.574Z,21.43
2023-02-07T03:29:17.378Z,22.10
2023-02-07T03:31:23.697Z,21.20
2023-02-07T03:33:27.324Z,23.57
2023-02-07T03:35:34.222Z,20.27
2023-02-07T03:37:41.694Z,20.23
2023-02-07T03:39:44.593Z,20.43
2023-02-07T03:41:52.786Z,21.20
2023-02-07T03:43:56.576Z,19.87
2023-02-07T03:45:59.801Z,21.43
2023-02-07T03:48:02.791Z,20.40
2023-02-07T03:50:06.216Z,22.53
2023-02-07T03:52:09.037Z,21.67
2023-02-07T03:54:12.532Z,21.77
2023-02-07T03:56:15.426Z,19.67
2023-02-07T03:58:18.367Z,20.83
2023-02-07T04:00:21.513Z,20.50
2023-02-07T04:02:24.373Z,23.50
2023-02-07T04:04:27.144Z,17.67
2023-02-07T04:06:29.882Z,19.43
2023-02-07T04:08:33.360Z,19.43
2023-02-07T04:10:43.221Z,22.97
2023-02-07T04:12:46.297Z,23.40
2023-02-07T04:14:49.101Z,22.47
2023-02-07T04:16:51.841Z,20.23
2023-02-07T04:18:54.594Z,22.40
2023-02-07T04:21:02.206Z,23.23
2023-02-07T04:23:04.940Z,25.27
2023-02-07T04:25:08.082Z,22.37
2023-02-07T04:27:12.132Z,22.37
2023-02-07T04:29:14.875Z,25.03
2023-02-07T04:31:17.667Z,20.83
2023-02-07T04:33:21.173Z,22.87
2023-02-07T04:35:23.894Z,21.73
2023-02-07T04:37:26.611Z,21.20
2023-02-07T04:39:29.556Z,21.83
2023-02-07T04:41:32.384Z,23.97
2023-02-07T04:43:38.476Z,19.73
2023-02-07T04:45:42.491Z,19.20
2023-02-07T04:47:45.313Z,22.60
2023-02-07T04:49:48.498Z,19.60
2023-02-07T04:51:51.241Z,22.47
2023-02-07T04:53:54.046Z,22.37
2023-02-07T04:55:56.871Z,23.37
2023-02-07T04:57:59.616Z,26.60
2023-02-07T05:00:03.779Z,21.33
2023-02-07T05:02:06.513Z,20.97
2023-02-07T05:04:09.620Z,19.93
2023-02-07T05:06:13.109Z,21.57
2023-02-07T05:08:17.072Z,22.63
2023-02-07T05:10:20.043Z,22.43
2023-02-07T05:12:22.736Z,24.13
2023-02-07T05:14:25.533Z,24.60
2023-02-07T05:16:29.675Z,23.63
2023-02-07T05:18:32.894Z,23.03
2023-02-07T05:20:35.772Z,22.03
2023-02-07T05:22:38.513Z,21.63
2023-02-07T05:24:41.288Z,21.50
2023-02-07T05:26:44.011Z,25.00
2023-02-07T05:28:46.763Z,22.73
2023-02-07T05:30:49.556Z,25.90
2023-02-07T05:33:07.619Z,29.47
2023-02-07T05:35:10.466Z,28.93
2023-02-07T05:37:13.157Z,28.67
2023-02-07T05:39:15.904Z,31.97
2023-02-07T05:41:18.579Z,31.50
2023-02-07T05:43:21.319Z,29.83
2023-02-07T05:45:24.041Z,31.87
2023-02-07T05:47:26.866Z,25.30
2023-02-07T05:49:30.946Z,30.67
2023-02-07T05:51:33.730Z,32.20
2023-02-07T05:53:37.503Z,31.10
2023-02-07T05:55:40.627Z,29.77
2023-02-07T05:57:44.738Z,34.60
2023-02-07T05:59:47.496Z,28.77
2023-02-07T06:01:50.199Z,30.23
2023-02-07T06:03:52.924Z,31.47
2023-02-07T06:05:56.947Z,26.87
2023-02-07T06:08:00.013Z,28.03
2023-02-07T06:10:03.049Z,30.77
2023-02-07T06:12:06.264Z,26.37
2023-02-07T06:14:09.022Z,30.67
2023-02-07T06:16:12.087Z,27.23
2023-02-07T06:18:15.296Z,27.50
2023-02-07T06:20:18.510Z,28.87
2023-02-07T06:22:22.627Z,26.70
2023-02-07T06:24:25.389Z,29.27
2023-02-07T06:26:28.111Z,25.10
2023-02-07T06:28:30.824Z,28.50
2023-02-07T06:30:33.632Z,28.40
2023-02-07T06:32:36.472Z,32.23
2023-02-07T06:34:39.216Z,29.00
2023-02-07T06:36:41.977Z,30.77
2023-02-07T06:38:46.170Z,33.10
2023-02-07T06:40:49.823Z,31.93
2023-02-07T06:42:52.564Z,35.93
2023-02-07T06:44:55.342Z,27.30
2023-02-07T06:46:58.154Z,31.03
2023-02-07T06:49:00.915Z,32.57
2023-02-07T06:51:03.616Z,30.27
2023-02-07T06:53:06.830Z,26.47
2023-02-07T06:55:11.055Z,29.70
2023-02-07T06:57:13.803Z,30.47
2023-02-07T06:59:16.639Z,28.40
2023-02-07T07:01:20.827Z,29.67
2023-02-07T07:03:27.118Z,28.53
2023-02-07T07:05:30.498Z,27.03
2023-02-07T07:07:33.223Z,30.13
2023-02-07T07:09:36.003Z,31.33
2023-02-07T07:11:43.031Z,31.73
2023-02-07T07:13:45.900Z,28.83
2023-02-07T07:15:48.742Z,29.07
2023-02-07T07:17:51.609Z,30.40
2023-02-07T07:19:54.384Z,32.63
2023-02-07T07:21:57.194Z,32.50
2023-02-07T07:23:59.981Z,35.37
2023-02-07T07:26:02.855Z,30.03
2023-02-07T07:28:06.987Z,27.77
2023-02-07T07:30:11.295Z,28.93
2023-02-07T07:32:25.180Z,28.67
2023-02-07T07:34:35.814Z,29.40
2023-02-07T07:36:38.552Z,36.23
2023-02-07T07:38:44.533Z,27.70
2023-02-07T07:40:50.092Z,26.87
2023-02-07T07:42:52.763Z,30.77
2023-02-07T07:44:56.836Z,30.70
2023-02-07T07:46:59.668Z,29.80
2023-02-07T07:49:02.437Z,33.33
2023-02-07T07:51:05.688Z,30.37
2023-02-07T07:53:08.674Z,32.93
2023-02-07T07:55:11.584Z,30.20
2023-02-07T07:57:14.358Z,29.40
2023-02-07T07:59:24.011Z,30.30
2023-02-07T08:01:28.929Z,29.37
2023-02-07T08:03:31.727Z,30.77
2023-02-07T08:05:34.499Z,30.33
2023-02-07T08:07:37.248Z,28.07
2023-02-07T08:09:40.065Z,28.00
2023-02-07T08:11:42.787Z,29.70
2023-02-07T08:13:45.865Z,30.27
2023-02-07T08:15:48.872Z,29.87
2023-02-07T08:17:52.937Z,27.13
2023-02-07T08:19:55.681Z,28.50
2023-02-07T08:21:58.398Z,29.80
2023-02-07T08:24:01.098Z,28.93
2023-02-07T08:26:04.318Z,32.47
2023-02-07T08:28:07.136Z,27.30
2023-02-07T08:30:12.601Z,26.33
2023-02-07T08:32:15.366Z,27.30
2023-02-07T08:34:23.989Z,26.40
2023-02-07T08:36:26.872Z,30.83
2023-02-07T08:38:29.555Z,25.03
2023-02-07T08:40:32.344Z,32.50
2023-02-07T08:42:35.055Z,28.93
2023-02-07T08:44:38.289Z,28.50
2023-02-07T08:46:41.014Z,25.70
2023-02-07T08:48:43.716Z,26.63
2023-02-07T08:50:48.026Z,26.63
2023-02-07T08:52:50.728Z,24.17
2023-02-07T08:54:53.492Z,27.80
2023-02-07T08:56:56.245Z,25.47
2023-02-07T08:58:58.972Z,22.33
2023-02-07T09:01:01.762Z,24.93
2023-02-07T09:03:05.485Z,25.37
2023-02-07T09:05:08.978Z,26.73
2023-02-07T09:07:13.147Z,24.70
2023-02-07T09:09:15.967Z,25.53
2023-02-07T09:11:21.537Z,23.17
2023-02-07T09:13:26.822Z,28.53
2023-02-07T09:15:29.577Z,23.77
2023-02-07T09:17:32.318Z,32.23
2023-02-07T09:19:35.931Z,27.07
2023-02-07T09:21:38.725Z,25.63
2023-02-07T09:23:42.805Z,26.63
2023-02-07T09:25:46.139Z,29.40
2023-02-07T09:27:48.912Z,26.27
2023-02-07T09:29:51.655Z,26.60
2023-02-07T09:31:54.422Z,27.63
2023-02-07T09:33:57.178Z,27.70
2023-02-07T09:35:59.874Z,27.37
2023-02-07T09:38:02.598Z,30.00
2023-02-07T09:40:08.304Z,26.03
2023-02-07T09:42:20.215Z,26.77
2023-02-07T09:44:28.855Z,27.83
2023-02-07T09:46:36.366Z,28.07
2023-02-07T09:48:45.716Z,28.80
2023-02-07T09:50:52.754Z,29.20
2023-02-07T09:52:58.709Z,29.50
2023-02-07T09:55:02.668Z,27.87
2023-02-07T09:57:13.801Z,28.03
2023-02-07T09:59:24.584Z,28.20
2023-02-07T10:01:30.845Z,30.53
2023-02-07T10:03:37.316Z,29.13
2023-02-07T10:05:45.689Z,27.07
2023-02-07T10:07:49.875Z,28.63
2023-02-07T10:09:52.628Z,34.10
2023-02-07T10:11:59.758Z,30.67
2023-02-07T10:14:26.589Z,30.23
2023-02-07T10:16:49.986Z,27.10
2023-02-07T10:19:01.022Z,30.23
2023-02-07T10:21:12.619Z,29.53
2023-02-07T10:23:31.667Z,29.27
2023-02-07T10:25:45.431Z,28.50
2023-02-07T10:27:57.355Z,29.50
2023-02-07T10:30:10.095Z,30.80
2023-02-07T10:32:16.468Z,30.80
2023-02-07T10:34:22.294Z,28.50
2023-02-07T10:36:26.496Z,25.97
2023-02-07T10:38:36.176Z,27.70
2023-02-07T10:40:43.429Z,26.00
2023-02-07T10:42:50.173Z,27.43
2023-02-07T10:44:53.337Z,28.67
2023-02-07T10:47:04.350Z,27.43
2023-02-07T10:49:07.115Z,28.23
2023-02-07T10:51:21.888Z,28.57
2023-02-07T10:53:54.211Z,28.87
2023-02-07T10:56:00.439Z,26.37
2023-02-07T10:58:17.782Z,27.80
2023-02-07T11:00:27.429Z,24.77
2023-02-07T11:02:44.750Z,24.60
2023-02-07T11:04:47.851Z,22.80
2023-02-07T11:07:05.627Z,24.07
2023-02-07T11:09:22.239Z,24.07
2023-02-07T11:11:32.510Z,25.13
2023-02-07T11:13:47.183Z,25.93
2023-02-07T11:15:54.892Z,26.53
2023-02-07T11:17:59.548Z,22.47
2023-02-07T11:20:04.837Z,25.77
2023-02-07T11:22:11.170Z,24.87
2023-02-07T11:24:16.363Z,26.63
2023-02-07T11:26:20.434Z,25.03
2023-02-07T11:28:28.230Z,25.33
2023-02-07T11:30:34.770Z,22.27
2023-02-07T11:32:38.485Z,25.43
2023-02-07T11:34:49.035Z,29.03
2023-02-07T11:36:52.604Z,21.90
2023-02-07T11:38:57.164Z,24.07
2023-02-07T11:41:04.006Z,21.63
2023-02-07T11:43:12.645Z,22.37
2023-02-07T11:45:16.469Z,27.47
2023-02-07T11:47:22.628Z,22.77
2023-02-07T11:49:28.415Z,23.10
2023-02-07T11:51:33.548Z,22.90
2023-02-07T11:53:39.408Z,26.17
2023-02-07T11:55:44.218Z,22.67
2023-02-07T11:57:47.316Z,20.50
2023-02-07T11:59:59.652Z,18.07
2023-02-07T12:02:15.992Z,17.33
2023-02-07T12:04:21.080Z,19.23
2023-02-07T12:06:29.112Z,21.17
2023-02-07T12:08:36.275Z,19.40
2023-02-07T12:10:42.878Z,17.93
2023-02-07T12:12:49.420Z,18.30
2023-02-07T12:14:56.483Z,16.83
2023-02-07T12:17:01.931Z,17.03
2023-02-07T12:19:10.393Z,21.57
2023-02-07T12:21:20.611Z,19.80
2023-02-07T12:23:46.998Z,17.73
2023-02-07T12:25:55.119Z,20.80
2023-02-07T12:28:05.659Z,16.60
2023-02-07T12:30:18.584Z,18.40
2023-02-07T12:32:29.890Z,17.63
2023-02-07T12:34:44.633Z,18.23
2023-02-07T12:36:51.203Z,23.03
2023-02-07T12:39:00.063Z,22.37
2023-02-07T12:41:14.779Z,17.37
2023-02-07T12:43:22.290Z,19.13
2023-02-07T12:45:40.033Z,17.00
2023-02-07T12:47:51.400Z,17.57
2023-02-07T12:50:18.591Z,19.97
2023-02-07T12:52:32.280Z,18.43
2023-02-07T12:54:45.707Z,15.63
2023-02-07T12:56:58.280Z,15.50
2023-02-07T12:59:14.672Z,18.23
2023-02-07T13:01:24.203Z,19.77
2023-02-07T13:03:41.192Z,16.97
2023-02-07T13:05:59.730Z,16.30
2023-02-07T13:08:08.794Z,16.57
2023-02-07T13:10:22.547Z,18.80
2023-02-07T13:12:34.876Z,17.10
2023-02-07T13:14:51.577Z,13.37
2023-02-07T13:17:06.905Z,16.07
2023-02-07T13:19:18.908Z,14.40
2023-02-07T13:21:28.230Z,14.17
2023-02-07T13:23:34.725Z,16.37
2023-02-07T13:25:42.022Z,13.07
2023-02-07T13:27:47.096Z,16.30
2023-02-07T13:29:54.639Z,12.77
2023-02-07T13:32:01.142Z,12.50
2023-02-07T13:34:04.732Z,12.43
2023-02-07T13:36:16.565Z,15.37
2023-02-07T13:38:28.846Z,12.27
2023-02-07T13:40:39.623Z,12.47
2023-02-07T13:42:52.765Z,12.03
2023-02-07T13:45:04.554Z,13.33
2023-02-07T13:47:27.828Z,12.20
2023-02-07T13:49:43.233Z,11.80
2023-02-07T13:51:57.701Z,12.47
2023-02-07T13:54:10.104Z,12.33
2023-02-07T13:56:29.100Z,12.37
2023-02-07T13:59:12.769Z,11.60
2023-02-07T14:01:18.810Z,10.23
2023-02-07T14:03:24.642Z,11.90
2023-02-07T14:05:30.325Z,10.20
2023-02-07T14:07:36.056Z,12.43
2023-02-07T14:09:42.981Z,12.03
2023-02-07T14:11:48.670Z,13.80
2023-02-07T14:13:51.472Z,13.67
2023-02-07T14:16:02.067Z,13.50
2023-02-07T14:18:06.405Z,12.73
2023-02-07T14:20:48.651Z,13.43
2023-02-07T14:23:24.545Z,12.90
2023-02-07T14:25:40.798Z,13.93
2023-02-07T14:28:04.769Z,13.13
2023-02-07T14:30:20.732Z,14.07
2023-02-07T14:32:30.485Z,16.47
2023-02-07T14:35:03.851Z,16.23
2023-02-07T14:37:22.229Z,21.30
2023-02-07T14:39:31.216Z,16.60
2023-02-07T14:41:37.079Z,16.33
2023-02-07T14:44:06.409Z,16.23
2023-02-07T14:46:16.319Z,24.00
2023-02-07T14:48:36.929Z,14.10
2023-02-07T14:50:40.691Z,17.33
2023-02-07T14:52:46.604Z,17.03
2023-02-07T14:54:54.121Z,17.47
2023-02-07T14:57:08.782Z,24.90
2023-02-07T14:59:15.818Z,24.13
2023-02-07T15:01:20.069Z,27.67
2023-02-07T15:03:23.041Z,32.83
2023-02-07T15:05:30.432Z,30.17
2023-02-07T15:07:33.206Z,23.07
2023-02-07T15:09:36.088Z,24.23
2023-02-07T15:11:38.897Z,25.03
2023-02-07T15:13:45.574Z,27.53
2023-02-07T15:15:52.456Z,28.77
2023-02-07T15:17:57.444Z,28.97
2023-02-07T15:20:00.236Z,32.97
2023-02-07T15:22:17.204Z,26.40
2023-02-07T15:24:39.776Z,21.27
2023-02-07T15:26:51.228Z,20.83
2023-02-07T15:28:59.965Z,23.80
2023-02-07T15:31:05.622Z,24.97
2023-02-07T15:33:13.252Z,22.73
2023-02-07T15:35:20.978Z,21.47
2023-02-07T15:37:27.664Z,23.63
2023-02-07T15:39:31.232Z,27.87
2023-02-07T15:41:34.671Z,30.53
2023-02-07T15:43:37.512Z,33.60
2023-02-07T15:45:40.766Z,37.23
2023-02-07T15:47:43.615Z,30.20
2023-02-07T15:49:46.513Z,30.07
2023-02-07T15:51:51.481Z,31.97
2023-02-07T15:53:58.562Z,32.53
2023-02-07T15:56:01.495Z,29.13
2023-02-07T15:58:05.785Z,35.67
2023-02-07T16:00:15.804Z,36.83
2023-02-07T16:02:25.931Z,37.23
2023-02-07T16:04:31.489Z,35.87
2023-02-07T16:06:34.753Z,32.43
2023-02-07T16:08:40.313Z,34.97
2023-02-07T16:10:44.992Z,33.77
2023-02-07T16:12:53.127Z,33.40
2023-02-07T16:14:55.998Z,34.20
2023-02-07T16:16:59.958Z,31.80
2023-02-07T16:19:07.524Z,31.37
2023-02-07T16:21:14.799Z,30.10
2023-02-07T16:23:17.585Z,33.60
2023-02-07T16:25:22.505Z,32.07
2023-02-07T16:27:30.387Z,31.83
2023-02-07T16:29:34.139Z,32.17
2023-02-07T16:31:36.969Z,33.00
2023-02-07T16:33:40.064Z,31.33
2023-02-07T16:35:43.230Z,32.43
2023-02-07T16:37:46.147Z,37.93
2023-02-07T16:39:49.068Z,36.73
2023-02-07T16:41:55.740Z,38.10
2023-02-07T16:44:00.714Z,40.70
2023-02-07T16:46:03.816Z,73.07
2023-02-07T16:48:14.682Z,43.57
2023-02-07T16:50:19.627Z,36.40
2023-02-07T16:52:22.411Z,32.77
2023-02-07T16:54:25.449Z,29.33
2023-02-07T16:56:29.462Z,27.63
2023-02-07T16:58:34.821Z,29.03
2023-02-07T17:00:39.357Z,34.57
2023-02-07T17:02:42.284Z,24.53
2023-02-07T17:04:45.020Z,34.33
2023-02-07T17:06:47.917Z,32.67
2023-02-07T17:08:51.823Z,26.77
2023-02-07T17:10:59.793Z,29.47
2023-02-07T17:13:02.479Z,28.20
2023-02-07T17:15:05.567Z,32.80
2023-02-07T17:17:11.348Z,32.97
2023-02-07T17:19:15.831Z,33.17
2023-02-07T17:21:18.798Z,26.60
2023-02-07T17:23:21.820Z,32.23
2023-02-07T17:25:28.077Z,31.90
2023-02-07T17:27:30.853Z,32.20
2023-02-07T17:29:33.538Z,29.73
2023-02-07T17:31:36.327Z,34.17
2023-02-07T17:33:40.723Z,29.73
2023-02-07T17:35:43.549Z,31.23
2023-02-07T17:37:46.252Z,29.40
2023-02-07T17:39:48.988Z,38.97
2023-02-07T17:41:51.714Z,30.70
2023-02-07T17:43:54.861Z,30.10
2023-02-07T17:45:57.755Z,29.23
2023-02-07T17:48:01.147Z,38.87
2023-02-07T17:50:05.747Z,41.40
2023-02-07T17:52:09.250Z,33.87
2023-02-07T17:54:12.133Z,31.90
2023-02-07T17:56:22.129Z,33.73
2023-02-07T17:58:24.885Z,30.87
2023-02-07T18:00:29.936Z,31.73
2023-02-07T18:02:35.365Z,34.07
2023-02-07T18:04:38.048Z,31.17
2023-02-07T18:06:42.294Z,30.67
2023-02-07T18:08:46.344Z,32.47
2023-02-07T18:10:49.226Z,30.13
2023-02-07T18:12:52.092Z,35.30
2023-02-07T18:14:56.589Z,30.70
2023-02-07T18:16:59.435Z,32.67
2023-02-07T18:19:03.654Z,35.67
2023-02-07T18:21:07.008Z,31.90
2023-02-07T18:23:16.102Z,31.23
2023-02-07T18:25:19.311Z,30.97
2023-02-07T18:27:22.164Z,30.90
2023-02-07T18:29:24.883Z,32.20
2023-02-07T18:31:28.092Z,30.07
2023-02-07T18:33:32.916Z,25.53
2023-02-07T18:35:36.206Z,31.93
2023-02-07T18:37:39.407Z,32.93
2023-02-07T18:39:53.327Z,34.33
2023-02-07T18:41:56.201Z,37.63
2023-02-07T18:43:58.958Z,35.80
2023-02-07T18:46:01.715Z,33.10
2023-02-07T18:48:04.740Z,38.87
2023-02-07T18:50:08.178Z,42.60
2023-02-07T18:52:10.878Z,44.70
2023-02-07T18:54:13.591Z,41.23
2023-02-07T18:56:20.089Z,42.77
2023-02-07T18:58:22.849Z,40.67
2023-02-07T19:00:25.912Z,37.53
2023-02-07T19:02:28.683Z,38.60
2023-02-07T19:04:31.754Z,39.27
2023-02-07T19:06:35.464Z,38.43
2023-02-07T19:08:38.352Z,42.57
2023-02-07T19:10:41.374Z,41.00
2023-02-07T19:12:45.681Z,38.70
2023-02-07T19:14:48.489Z,45.10
2023-02-07T19:16:53.887Z,41.23
2023-02-07T19:18:59.076Z,41.83
2023-02-07T19:21:04.719Z,43.97
2023-02-07T19:23:07.500Z,35.43
2023-02-07T19:25:10.404Z,42.40
2023-02-07T19:27:13.400Z,38.57
2023-02-07T19:29:19.149Z,37.73
2023-02-07T19:31:24.598Z,37.67
2023-02-07T19:33:27.620Z,37.67
2023-02-07T19:35:30.344Z,34.23
2023-02-07T19:37:33.051Z,37.90
2023-02-07T19:39:35.897Z,43.00
2023-02-07T19:41:38.695Z,44.03
2023-02-07T19:43:41.780Z,49.37
2023-02-07T19:45:45.884Z,54.33
2023-02-07T19:47:48.795Z,48.07
2023-02-07T19:49:52.352Z,42.87
2023-02-07T19:51:55.112Z,42.07
2023-02-07T19:53:57.858Z,40.90
2023-02-07T19:56:02.987Z,41.20
2023-02-07T19:58:05.757Z,39.00
2023-02-07T20:00:10.533Z,36.73
2023-02-07T20:02:15.567Z,40.33
2023-02-07T20:04:18.393Z,42.10
2023-02-07T20:06:23.890Z,42.20
2023-02-07T20:08:27.015Z,39.37
2023-02-07T20:10:29.800Z,42.73
2023-02-07T20:12:32.498Z,37.03
2023-02-07T20:14:35.281Z,39.60
2023-02-07T20:16:39.804Z,41.80
2023-02-07T20:18:44.233Z,39.43
2023-02-07T20:20:48.288Z,42.40
2023-02-07T20:22:53.753Z,41.90
2023-02-07T20:24:56.561Z,38.27
2023-02-07T20:26:59.251Z,37.80
2023-02-07T20:29:03.388Z,37.93
2023-02-07T20:31:07.774Z,35.77
2023-02-07T20:33:10.554Z,35.77
2023-02-07T20:35:14.919Z,37.03
2023-02-07T20:37:17.821Z,39.27
2023-02-07T20:39:22.774Z,38.40
2023-02-07T20:41:30.385Z,38.03
2023-02-07T20:43:33.185Z,36.80
2023-02-07T20:45:35.934Z,40.40
2023-02-07T20:47:39.191Z,40.87
2023-02-07T20:49:41.922Z,40.83
2023-02-07T20:51:48.629Z,44.23
2023-02-07T20:53:51.352Z,42.77
2023-02-07T20:55:54.147Z,49.73
2023-02-07T20:57:56.853Z,45.47
2023-02-07T20:59:59.600Z,42.33
2023-02-07T21:02:02.968Z,43.33
2023-02-07T21:04:06.873Z,42.83
2023-02-07T21:06:10.195Z,41.47
2023-02-07T21:08:14.417Z,40.30
2023-02-07T21:10:20.754Z,42.57
2023-02-07T21:12:23.498Z,42.03
2023-02-07T21:14:29.303Z,45.50
2023-02-07T21:16:38.768Z,42.63
2023-02-07T21:18:46.826Z,43.40
2023-02-07T21:20:50.511Z,35.80
2023-02-07T21:22:53.225Z,44.93
2023-02-07T21:24:57.283Z,42.93
2023-02-07T21:27:00.013Z,43.10
2023-02-07T21:29:05.192Z,47.63
2023-02-07T21:31:09.677Z,52.37
2023-02-07T21:33:13.541Z,46.83
2023-02-07T21:35:16.333Z,53.97
2023-02-07T21:37:20.350Z,44.33
2023-02-07T21:39:27.034Z,42.37
2023-02-07T21:41:32.358Z,44.60
2023-02-07T21:43:36.113Z,44.27
2023-02-07T21:45:38.939Z,40.53
2023-02-07T21:47:41.677Z,38.80
2023-02-07T21:49:44.821Z,42.90
2023-02-07T21:51:49.150Z,38.47
2023-02-07T21:53:54.030Z,38.57
2023-02-07T21:56:00.577Z,37.70
2023-02-07T21:58:04.666Z,41.17
2023-02-07T22:00:10.532Z,48.30
2023-02-07T22:02:14.479Z,43.63
2023-02-07T22:04:17.754Z,42.67
2023-02-07T22:06:21.203Z,42.03
2023-02-07T22:08:23.988Z,38.37
2023-02-07T22:10:26.761Z,33.23
2023-02-07T22:12:29.479Z,40.30
2023-02-07T22:14:33.557Z,34.40
2023-02-07T22:16:36.520Z,40.53
2023-02-07T22:18:39.454Z,38.90
2023-02-07T22:20:42.514Z,36.97
2023-02-07T22:22:45.332Z,35.97
2023-02-07T22:24:49.945Z,39.40
2023-02-07T22:26:52.619Z,33.27
2023-02-07T22:28:55.844Z,45.30
2023-02-07T22:31:00.423Z,42.70
2023-02-07T22:33:03.274Z,36.43
2023-02-07T22:35:06.597Z,38.80
2023-02-07T22:37:09.358Z,44.37
2023-02-07T22:39:16.621Z,36.90
2023-02-07T22:41:19.869Z,38.40
2023-02-07T22:43:23.493Z,38.83
2023-02-07T22:45:26.329Z,39.80
2023-02-07T22:47:30.538Z,36.67
2023-02-07T22:49:33.664Z,37.30
2023-02-07T22:51:38.247Z,37.60
2023-02-07T22:53:41.679Z,34.27
2023-02-07T22:55:46.147Z,37.90
2023-02-07T22:57:50.134Z,35.27
2023-02-07T22:59:52.912Z,36.07
2023-02-07T23:01:55.600Z,36.33
2023-02-07T23:03:59.928Z,38.40
2023-02-07T23:06:05.375Z,29.87
2023-02-07T23:08:08.241Z,33.77
2023-02-07T23:10:11.702Z,33.57
2023-02-07T23:12:15.686Z,33.77
2023-02-07T23:14:20.699Z,34.73
2023-02-07T23:16:26.767Z,35.20
2023-02-07T23:18:29.513Z,31.97
2023-02-07T23:20:33.618Z,39.17
2023-02-07T23:22:37.609Z,36.57
2023-02-07T23:24:40.340Z,38.20
2023-02-07T23:26:43.134Z,40.43
2023-02-07T23:28:46.424Z,41.00
2023-02-07T23:30:49.283Z,37.40
2023-02-07T23:32:52.047Z,39.07
2023-02-07T23:34:54.832Z,38.80
2023-02-07T23:36:58.957Z,40.70
2023-02-07T23:39:01.681Z,39.47
2023-02-07T23:41:04.989Z,39.47
2023-02-07T23:43:07.704Z,40.30
2023-02-07T23:45:10.798Z,40.77
2023-02-07T23:47:13.542Z,44.20
2023-02-07T23:49:16.277Z,38.63
2023-02-07T23:51:19.043Z,36.93
2023-02-07T23:53:24.055Z,38.67
2023-02-07T23:55:26.809Z,39.73
2023-02-07T23:57:29.514Z,44.80
2023-02-07T23:59:32.314Z,39.77
